Aeroporto :
LOGIN :

Iscrizione | Disclaimer

   EN    FR    IT 

 










Sommario :    VFR   VFR Marginale   IFR   IFR Intensivo   IFR Molto Intensivo
Visibilità : 
Base nubi : 
>= 8 km
>= 3000ft
5 / 8 km
1000 / 3000 ft
1500m / 5 km
500 / 1000 ft
800 / 1500m
200 / 500 ft
< 800m
< 200 ft
Simboli :   Temporali  Nebbia  Neve Forte  Precipitazioni Forti  Vento > 20 kt
SIGMETs :   Varie  Temporali  Ghiacco  Turbolenza  Onda orograficha  Ceneri Vulcaniche






- Altitudine del aeroporto : 341 ft


EPMO - Modlin

ULTIMO METAR :
  • 240630Z 36005KT CAVOK 04/00 Q1008

METARs OBSOLETI :
  • 240600Z 35006KT CAVOK 03/M00 Q1008
  • 240530Z 35004KT 320V020 CAVOK 02/M00 Q1008
  • 240500Z 36005KT CAVOK 02/M01 Q1009
  • 240430Z 02006KT CAVOK 01/M01 Q1009
  • 240400Z 36006KT CAVOK 01/M01 Q1009
  • 240330Z 02007KT CAVOK 01/M01 Q1010
  • 240300Z 02005KT CAVOK 01/M01 Q1010
  • 240230Z 02005KT 9999 SCT044 02/M01 Q1010

TAF TAF EPMO
Valido dal 24 a 06 ore il 25 a 06 ore UTC


240530Z 2406/2506 02005KT CAVOK
BECMG 2406/2409 -RA BKN014
PROB40
TEMPO 2409/2412 4000 RA BR BKN007
BECMG 2412/2414 BKN020
BECMG 2418/2421 29010KT BKN012
TEMPO 2421/2506 4000 RA BR BKN007



MetMap, La meteo Aeronautica in un colpo d'occhio ! - Copyright ORBIFLY Dicembre 2007 - Disclaimer

ORBIFLY MET'MAP TEAM :

Programmazione e sviluppo : Alexandra Zaïnal
Concezione : Baudouin d'Aumeries
Supporto tecnico e logistico : Manuel Goepfert
Aiuto : Marc-Olivier Méhu
Aiuto per la traduzione : Arnaldo La Scala




FONTI E CREDITI :

   NOAA